SWA2080 KISP-KMCO
Flight info
| Callsign | SWA2080 |
|---|---|
| Flight time | 2h 17m |
| Altitude | 38000 |
| Route | BEADS EMJAY Q167 ZJAAY Q97 SAWED MOXXY Q85 LPERD GTOUT1 |
| Aircraft | B38M/M-SADE2E3GHIJ4J7P2RWZ/LB1D1 |
Departure
| Time | 2026-05-01 12:19 |
|---|---|
| Airport | Long Island MacArthur Airport (KISP) |
Arrival
| Time | 2026-05-01 14:37 |
|---|---|
| Airport | Orlando International Airport (KMCO) |
| Time | Latitude | Longitude | Altitude | Speed | Heading |
|---|---|---|---|---|---|
| 2026-05-01 11:42 | 40.79012 | -73.09436 | 91 ft | 0 kts | 227° |
| 2026-05-01 12:10 | 40.79029 | -73.09409 | 92 ft | 4 kts | 253° |
| 2026-05-01 12:10 | 40.79025 | -73.09381 | 91 ft | 4 kts | 309° |
| 2026-05-01 12:11 | 40.79012 | -73.09362 | 91 ft | 0 kts | 315° |
| 2026-05-01 12:13 | 40.79013 | -73.09362 | 91 ft | 0 kts | 315° |
| 2026-05-01 12:14 | 40.79020 | -73.09372 | 91 ft | 3 kts | 315° |
| 2026-05-01 12:14 | 40.79039 | -73.09396 | 92 ft | 5 kts | 316° |
| 2026-05-01 12:14 | 40.79069 | -73.09435 | 91 ft | 7 kts | 316° |
| 2026-05-01 12:14 | 40.79109 | -73.09487 | 93 ft | 9 kts | 316° |
| 2026-05-01 12:15 | 40.79135 | -73.09519 | 93 ft | 3 kts | 319° |
| 2026-05-01 12:15 | 40.79159 | -73.09546 | 92 ft | 8 kts | 321° |
| 2026-05-01 12:15 | 40.79172 | -73.09559 | 92 ft | 0 kts | 322° |
| 2026-05-01 12:15 | 40.79195 | -73.09583 | 92 ft | 10 kts | 318° |
| 2026-05-01 12:16 | 40.79201 | -73.09590 | 92 ft | 6 kts | 317° |
| 2026-05-01 12:16 | 40.79214 | -73.09606 | 94 ft | 0 kts | 321° |
| 2026-05-01 12:16 | 40.79288 | -73.09601 | 94 ft | 34 kts | 26° |
| 2026-05-01 12:17 | 40.79458 | -73.09400 | 94 ft | 27 kts | 31° |
| 2026-05-01 12:17 | 40.79593 | -73.09388 | 94 ft | 26 kts | 343° |
| 2026-05-01 12:17 | 40.79754 | -73.09456 | 95 ft | 22 kts | 351° |
| 2026-05-01 12:17 | 40.79910 | -73.09467 | 94 ft | 23 kts | 358° |
| 2026-05-01 12:18 | 40.80023 | -73.09468 | 93 ft | 12 kts | 5° |
| 2026-05-01 12:18 | 40.80128 | -73.09432 | 92 ft | 13 kts | 13° |
| 2026-05-01 12:18 | 40.80200 | -73.09436 | 92 ft | 18 kts | 326° |
| 2026-05-01 12:18 | 40.80214 | -73.09546 | 95 ft | 32 kts | 240° |
| 2026-05-01 12:19 | 40.79878 | -73.09899 | 96 ft | 97 kts | 222° |
| 2026-05-01 12:19 | 40.79221 | -73.10760 | 108 ft | 165 kts | 223° |
| 2026-05-01 12:19 | 40.78291 | -73.11897 | 448 ft | 201 kts | 222° |
| 2026-05-01 12:19 | 40.76973 | -73.12797 | 1095 ft | 225 kts | 199° |
| 2026-05-01 12:20 | 40.75404 | -73.12851 | 1898 ft | 237 kts | 160° |
| 2026-05-01 12:20 | 40.74092 | -73.11527 | 2402 ft | 245 kts | 116° |
| 2026-05-01 12:20 | 40.73743 | -73.09364 | 2953 ft | 248 kts | 76° |
| 2026-05-01 12:20 | 40.74544 | -73.07379 | 3525 ft | 250 kts | 37° |
| 2026-05-01 12:21 | 40.75972 | -73.06062 | 4323 ft | 256 kts | 36° |
| 2026-05-01 12:21 | 40.77089 | -73.04168 | 5009 ft | 269 kts | 66° |
| 2026-05-01 12:21 | 40.77363 | -73.01709 | 5761 ft | 280 kts | 96° |
| 2026-05-01 12:21 | 40.76655 | -72.99305 | 6473 ft | 285 kts | 129° |
| 2026-05-01 12:22 | 40.75120 | -72.97690 | 7134 ft | 285 kts | 162° |
| 2026-05-01 12:22 | 40.73858 | -72.97308 | 7642 ft | 280 kts | 182° |
| 2026-05-01 12:22 | 40.71401 | -72.98149 | 8626 ft | 274 kts | 208° |
| 2026-05-01 12:22 | 40.69596 | -72.99024 | 9437 ft | 278 kts | 205° |
| 2026-05-01 12:23 | 40.67761 | -72.99860 | 10188 ft | 281 kts | 205° |
| 2026-05-01 12:23 | 40.65855 | -73.00711 | 10566 ft | 299 kts | 204° |
| 2026-05-01 12:23 | 40.63808 | -73.01593 | 10818 ft | 319 kts | 203° |
| 2026-05-01 12:23 | 40.61647 | -73.02515 | 11139 ft | 334 kts | 203° |
| 2026-05-01 12:24 | 40.60164 | -73.03151 | 11456 ft | 341 kts | 203° |
| 2026-05-01 12:24 | 40.57903 | -73.04138 | 12159 ft | 343 kts | 204° |
| 2026-05-01 12:24 | 40.55627 | -73.05151 | 12889 ft | 346 kts | 204° |
| 2026-05-01 12:24 | 40.52593 | -73.06519 | 13870 ft | 350 kts | 205° |
| 2026-05-01 12:25 | 40.51034 | -73.07225 | 14315 ft | 351 kts | 205° |
| 2026-05-01 12:25 | 40.46380 | -73.09342 | 15700 ft | 357 kts | 206° |
| 2026-05-01 12:25 | 40.44026 | -73.10413 | 16393 ft | 360 kts | 206° |
| 2026-05-01 12:26 | 40.41639 | -73.11499 | 17072 ft | 363 kts | 206° |
| 2026-05-01 12:26 | 40.36824 | -73.13688 | 18377 ft | 370 kts | 206° |
| 2026-05-01 12:26 | 40.34414 | -73.14782 | 18945 ft | 372 kts | 206° |
| 2026-05-01 12:27 | 40.31961 | -73.15896 | 19522 ft | 375 kts | 206° |
| 2026-05-01 12:27 | 40.27017 | -73.18141 | 20679 ft | 378 kts | 207° |
| 2026-05-01 12:28 | 40.22018 | -73.20410 | 21789 ft | 383 kts | 207° |
| 2026-05-01 12:28 | 40.19494 | -73.21556 | 22335 ft | 385 kts | 207° |
| 2026-05-01 12:28 | 40.14397 | -73.23867 | 23397 ft | 390 kts | 207° |
| 2026-05-01 12:29 | 40.11821 | -73.25034 | 23833 ft | 393 kts | 206° |
| 2026-05-01 12:29 | 40.09355 | -73.26471 | 24245 ft | 383 kts | 220° |
| 2026-05-01 12:29 | 40.05220 | -73.30843 | 24990 ft | 385 kts | 226° |
| 2026-05-01 12:30 | 40.01111 | -73.35375 | 25804 ft | 389 kts | 226° |
| 2026-05-01 12:30 | 39.99044 | -73.37677 | 26193 ft | 391 kts | 226° |
| 2026-05-01 12:30 | 39.96968 | -73.39993 | 26577 ft | 394 kts | 226° |
| 2026-05-01 12:31 | 39.94880 | -73.42324 | 26947 ft | 396 kts | 226° |
| 2026-05-01 12:31 | 39.92778 | -73.44670 | 27281 ft | 399 kts | 226° |
| 2026-05-01 12:31 | 39.90665 | -73.47025 | 27646 ft | 401 kts | 226° |
| 2026-05-01 12:31 | 39.88536 | -73.49398 | 28008 ft | 403 kts | 227° |
| 2026-05-01 12:32 | 39.86398 | -73.51777 | 28359 ft | 406 kts | 227° |
| 2026-05-01 12:32 | 39.82118 | -73.56546 | 29055 ft | 410 kts | 227° |
| 2026-05-01 12:32 | 39.79917 | -73.58997 | 29391 ft | 412 kts | 227° |
| 2026-05-01 12:33 | 39.77736 | -73.61423 | 29716 ft | 414 kts | 227° |
| 2026-05-01 12:33 | 39.75539 | -73.63866 | 30096 ft | 415 kts | 227° |
| 2026-05-01 12:33 | 39.73377 | -73.66267 | 30477 ft | 414 kts | 228° |
| 2026-05-01 12:33 | 39.71194 | -73.68689 | 30941 ft | 410 kts | 228° |
| 2026-05-01 12:34 | 39.69029 | -73.71089 | 31359 ft | 409 kts | 229° |
| 2026-05-01 12:34 | 39.66867 | -73.73485 | 31751 ft | 407 kts | 229° |
| 2026-05-01 12:34 | 39.64715 | -73.75866 | 32143 ft | 406 kts | 229° |
| 2026-05-01 12:34 | 39.62568 | -73.78240 | 32538 ft | 405 kts | 229° |
| 2026-05-01 12:35 | 39.60428 | -73.80604 | 32931 ft | 404 kts | 229° |
| 2026-05-01 12:35 | 39.58292 | -73.82962 | 33319 ft | 402 kts | 230° |
| 2026-05-01 12:35 | 39.56162 | -73.85311 | 33701 ft | 401 kts | 230° |
| 2026-05-01 12:35 | 39.54041 | -73.87649 | 34071 ft | 400 kts | 230° |
| 2026-05-01 12:36 | 39.51925 | -73.89978 | 34344 ft | 400 kts | 230° |
| 2026-05-01 12:36 | 39.49803 | -73.92313 | 34578 ft | 401 kts | 230° |
| 2026-05-01 12:36 | 39.47672 | -73.94654 | 34809 ft | 401 kts | 229° |
| 2026-05-01 12:36 | 39.45539 | -73.96998 | 35048 ft | 402 kts | 229° |
| 2026-05-01 12:37 | 39.43407 | -73.99338 | 35275 ft | 403 kts | 229° |
| 2026-05-01 12:37 | 39.41264 | -74.01688 | 35517 ft | 404 kts | 229° |
| 2026-05-01 12:37 | 39.39119 | -74.04034 | 35762 ft | 404 kts | 229° |
| 2026-05-01 12:37 | 39.36969 | -74.06386 | 35934 ft | 405 kts | 229° |
| 2026-05-01 12:38 | 39.34820 | -74.08733 | 36199 ft | 404 kts | 229° |
| 2026-05-01 12:38 | 39.32677 | -74.11073 | 36474 ft | 404 kts | 229° |
| 2026-05-01 12:38 | 39.30528 | -74.13417 | 36665 ft | 405 kts | 228° |
| 2026-05-01 12:38 | 39.28375 | -74.15764 | 36867 ft | 405 kts | 228° |
| 2026-05-01 12:39 | 39.26219 | -74.18112 | 37056 ft | 406 kts | 228° |
| 2026-05-01 12:39 | 39.24086 | -74.20434 | 37246 ft | 407 kts | 228° |
| 2026-05-01 12:39 | 39.21893 | -74.22817 | 37432 ft | 407 kts | 227° |
| 2026-05-01 12:39 | 39.19753 | -74.25142 | 37616 ft | 408 kts | 227° |
| 2026-05-01 12:40 | 39.17582 | -74.27498 | 37739 ft | 408 kts | 228° |
| 2026-05-01 12:40 | 39.15413 | -74.29851 | 37983 ft | 407 kts | 228° |
| 2026-05-01 12:40 | 39.11062 | -74.34565 | 38023 ft | 410 kts | 228° |
| 2026-05-01 12:41 | 39.06706 | -74.39276 | 38040 ft | 409 kts | 228° |
| 2026-05-01 12:41 | 39.02345 | -74.43983 | 38043 ft | 409 kts | 228° |
| 2026-05-01 12:42 | 38.97984 | -74.48684 | 38013 ft | 409 kts | 228° |
| 2026-05-01 12:42 | 38.93712 | -74.53380 | 38043 ft | 403 kts | 231° |
| 2026-05-01 12:43 | 38.89570 | -74.58248 | 38045 ft | 404 kts | 230° |
| 2026-05-01 12:43 | 38.85410 | -74.63098 | 38049 ft | 404 kts | 230° |
| 2026-05-01 12:44 | 38.81243 | -74.67945 | 38049 ft | 404 kts | 230° |
| 2026-05-01 12:45 | 38.72791 | -74.77404 | 38059 ft | 404 kts | 228° |
| 2026-05-01 12:45 | 38.68438 | -74.81949 | 38048 ft | 404 kts | 229° |
| 2026-05-01 12:46 | 38.64093 | -74.86498 | 38048 ft | 404 kts | 229° |
| 2026-05-01 12:46 | 38.59769 | -74.91018 | 38048 ft | 404 kts | 229° |
| 2026-05-01 12:47 | 38.55421 | -74.95557 | 38040 ft | 403 kts | 229° |
| 2026-05-01 12:47 | 38.51161 | -75.00163 | 38055 ft | 400 kts | 230° |
| 2026-05-01 12:48 | 38.46920 | -75.04802 | 38046 ft | 404 kts | 226° |
| 2026-05-01 12:48 | 38.42377 | -75.09070 | 38056 ft | 406 kts | 226° |
| 2026-05-01 12:49 | 38.37866 | -75.13363 | 38015 ft | 404 kts | 227° |
| 2026-05-01 12:49 | 38.33366 | -75.17653 | 38052 ft | 404 kts | 227° |
| 2026-05-01 12:50 | 38.28896 | -75.21910 | 38053 ft | 403 kts | 227° |
| 2026-05-01 12:50 | 38.24399 | -75.26185 | 38053 ft | 403 kts | 227° |
| 2026-05-01 12:51 | 38.19901 | -75.30455 | 38053 ft | 403 kts | 227° |
| 2026-05-01 12:52 | 38.13154 | -75.36847 | 38057 ft | 403 kts | 227° |
| 2026-05-01 12:52 | 38.06412 | -75.43220 | 38067 ft | 402 kts | 227° |
| 2026-05-01 12:53 | 37.99483 | -75.49295 | 38051 ft | 404 kts | 226° |
| 2026-05-01 12:54 | 37.94901 | -75.53304 | 38060 ft | 402 kts | 226° |
| 2026-05-01 12:54 | 37.88006 | -75.59329 | 38063 ft | 401 kts | 226° |
| 2026-05-01 12:55 | 37.80882 | -75.65051 | 38083 ft | 407 kts | 223° |
| 2026-05-01 12:56 | 37.76016 | -75.68717 | 38036 ft | 406 kts | 223° |
| 2026-05-01 12:56 | 37.71173 | -75.72379 | 38076 ft | 405 kts | 223° |
| 2026-05-01 12:57 | 37.66331 | -75.76037 | 38077 ft | 405 kts | 223° |
| 2026-05-01 12:57 | 37.59074 | -75.81510 | 38078 ft | 405 kts | 223° |
| 2026-05-01 12:58 | 37.54239 | -75.85152 | 38079 ft | 404 kts | 224° |
| 2026-05-01 12:58 | 37.52025 | -75.87207 | 38086 ft | 391 kts | 230° |
| 2026-05-01 12:59 | 37.47741 | -75.91494 | 38055 ft | 393 kts | 230° |
| 2026-05-01 12:59 | 37.41372 | -75.97912 | 38075 ft | 393 kts | 230° |
| 2026-05-01 13:00 | 37.34972 | -76.04355 | 38011 ft | 393 kts | 231° |
| 2026-05-01 13:01 | 37.28567 | -76.10790 | 38070 ft | 393 kts | 231° |
| 2026-05-01 13:02 | 37.22164 | -76.17208 | 38068 ft | 392 kts | 231° |
| 2026-05-01 13:07 | 36.75023 | -76.64024 | 38091 ft | 393 kts | 231° |
| 2026-05-01 13:08 | 36.70725 | -76.68254 | 38056 ft | 393 kts | 231° |
| 2026-05-01 13:08 | 36.66431 | -76.72475 | 38090 ft | 393 kts | 231° |
| 2026-05-01 13:09 | 36.62140 | -76.76687 | 38087 ft | 393 kts | 231° |
| 2026-05-01 13:09 | 36.57841 | -76.80900 | 38082 ft | 393 kts | 231° |
| 2026-05-01 13:10 | 36.53546 | -76.85103 | 38069 ft | 393 kts | 230° |
| 2026-05-01 13:10 | 36.49250 | -76.89301 | 38029 ft | 391 kts | 231° |
| 2026-05-01 13:11 | 36.45712 | -76.92753 | 38080 ft | 389 kts | 231° |
| 2026-05-01 13:11 | 36.40765 | -76.97574 | 38085 ft | 388 kts | 231° |
| 2026-05-01 13:12 | 36.37200 | -77.01043 | 38088 ft | 388 kts | 231° |
| 2026-05-01 13:12 | 36.32943 | -77.05180 | 38086 ft | 388 kts | 231° |
| 2026-05-01 13:13 | 36.28711 | -77.09287 | 38042 ft | 389 kts | 231° |
| 2026-05-01 13:13 | 36.24451 | -77.13416 | 38091 ft | 389 kts | 231° |
| 2026-05-01 13:14 | 36.20188 | -77.17540 | 38091 ft | 388 kts | 231° |
| 2026-05-01 13:14 | 36.15934 | -77.21652 | 38087 ft | 388 kts | 231° |
| 2026-05-01 13:15 | 36.11674 | -77.25764 | 38083 ft | 387 kts | 231° |
| 2026-05-01 13:15 | 36.07426 | -77.29859 | 38073 ft | 387 kts | 231° |
| 2026-05-01 13:16 | 36.03180 | -77.33962 | 38080 ft | 389 kts | 231° |
| 2026-05-01 13:16 | 35.98934 | -77.38073 | 38073 ft | 390 kts | 231° |
| 2026-05-01 13:17 | 35.90391 | -77.46329 | 38077 ft | 390 kts | 231° |
| 2026-05-01 13:18 | 35.83981 | -77.52510 | 38019 ft | 390 kts | 231° |
| 2026-05-01 13:18 | 35.79694 | -77.56635 | 38071 ft | 392 kts | 231° |
| 2026-05-01 13:19 | 35.75421 | -77.60742 | 38079 ft | 391 kts | 231° |
| 2026-05-01 13:20 | 35.69006 | -77.66896 | 38066 ft | 390 kts | 231° |
| 2026-05-01 13:20 | 35.64718 | -77.71002 | 38068 ft | 390 kts | 231° |
| 2026-05-01 13:21 | 35.58284 | -77.77153 | 38077 ft | 392 kts | 231° |
| 2026-05-01 13:21 | 35.53973 | -77.81267 | 38068 ft | 392 kts | 231° |
| 2026-05-01 13:22 | 35.49668 | -77.85370 | 38072 ft | 392 kts | 231° |
| 2026-05-01 13:22 | 35.45361 | -77.89469 | 38072 ft | 392 kts | 231° |
| 2026-05-01 13:23 | 35.41048 | -77.93568 | 38074 ft | 392 kts | 231° |
| 2026-05-01 13:23 | 35.36743 | -77.97653 | 38070 ft | 391 kts | 231° |
| 2026-05-01 13:24 | 35.32449 | -78.01723 | 38065 ft | 390 kts | 231° |
| 2026-05-01 13:25 | 35.26001 | -78.07823 | 38063 ft | 390 kts | 231° |
| 2026-05-01 13:25 | 35.21737 | -78.11850 | 38065 ft | 390 kts | 231° |
| 2026-05-01 13:26 | 35.17435 | -78.15907 | 38059 ft | 390 kts | 231° |
| 2026-05-01 13:26 | 35.13134 | -78.19959 | 38062 ft | 391 kts | 231° |
| 2026-05-01 13:27 | 35.08826 | -78.24011 | 38064 ft | 390 kts | 231° |
| 2026-05-01 13:27 | 35.02368 | -78.30077 | 38067 ft | 390 kts | 231° |
| 2026-05-01 13:28 | 34.95907 | -78.36130 | 38067 ft | 390 kts | 231° |
| 2026-05-01 13:29 | 34.87314 | -78.44167 | 38065 ft | 390 kts | 230° |
| 2026-05-01 13:31 | 34.74387 | -78.56215 | 38052 ft | 390 kts | 230° |
| 2026-05-01 13:32 | 34.63606 | -78.66226 | 38053 ft | 392 kts | 230° |
| 2026-05-01 13:33 | 34.52799 | -78.76229 | 38044 ft | 390 kts | 230° |
| 2026-05-01 13:34 | 34.44111 | -78.84179 | 38034 ft | 396 kts | 228° |
| 2026-05-01 13:35 | 34.37317 | -78.89916 | 38036 ft | 396 kts | 228° |
| 2026-05-01 13:36 | 34.30570 | -78.95635 | 38031 ft | 396 kts | 228° |
| 2026-05-01 13:36 | 34.23784 | -79.01361 | 37970 ft | 397 kts | 228° |
| 2026-05-01 13:37 | 34.19230 | -79.05186 | 38044 ft | 400 kts | 228° |
| 2026-05-01 13:37 | 34.14664 | -79.09015 | 38030 ft | 399 kts | 228° |
| 2026-05-01 13:38 | 34.07834 | -79.14735 | 38035 ft | 399 kts | 228° |
| 2026-05-01 13:39 | 34.03271 | -79.18550 | 38034 ft | 399 kts | 228° |
| 2026-05-01 13:39 | 33.98712 | -79.22361 | 38001 ft | 399 kts | 228° |
| 2026-05-01 13:40 | 33.94133 | -79.26182 | 38038 ft | 402 kts | 227° |
| 2026-05-01 13:40 | 33.89541 | -79.30010 | 38033 ft | 401 kts | 227° |
| 2026-05-01 13:41 | 33.84977 | -79.33809 | 38029 ft | 401 kts | 227° |
| 2026-05-01 13:41 | 33.80384 | -79.37626 | 38030 ft | 401 kts | 227° |
| 2026-05-01 13:42 | 33.75783 | -79.41446 | 37981 ft | 401 kts | 228° |
| 2026-05-01 13:42 | 33.71161 | -79.45278 | 38031 ft | 406 kts | 227° |
| 2026-05-01 13:43 | 33.66527 | -79.49115 | 38014 ft | 406 kts | 227° |
| 2026-05-01 13:43 | 33.61879 | -79.52958 | 38015 ft | 406 kts | 227° |
| 2026-05-01 13:44 | 33.57231 | -79.56797 | 38016 ft | 406 kts | 227° |
| 2026-05-01 13:44 | 33.52572 | -79.60639 | 38013 ft | 406 kts | 227° |
| 2026-05-01 13:45 | 33.47888 | -79.64497 | 38006 ft | 410 kts | 227° |
| 2026-05-01 13:45 | 33.43152 | -79.68392 | 38003 ft | 414 kts | 227° |
| 2026-05-01 13:46 | 33.38404 | -79.72292 | 38006 ft | 414 kts | 227° |
| 2026-05-01 13:46 | 33.33650 | -79.76190 | 38000 ft | 414 kts | 227° |
| 2026-05-01 13:47 | 33.28930 | -79.80054 | 38009 ft | 414 kts | 227° |
| 2026-05-01 13:47 | 33.24184 | -79.83934 | 37997 ft | 413 kts | 227° |
| 2026-05-01 13:48 | 33.19428 | -79.87819 | 38002 ft | 415 kts | 227° |
| 2026-05-01 13:48 | 33.14668 | -79.91700 | 38008 ft | 414 kts | 227° |
| 2026-05-01 13:49 | 33.09903 | -79.95581 | 38004 ft | 414 kts | 227° |
| 2026-05-01 13:49 | 33.05138 | -79.99456 | 38009 ft | 414 kts | 227° |
| 2026-05-01 13:50 | 33.00373 | -80.03327 | 37995 ft | 414 kts | 227° |
| 2026-05-01 13:50 | 32.95607 | -80.07193 | 38002 ft | 415 kts | 227° |
| 2026-05-01 13:51 | 32.90840 | -80.11054 | 37984 ft | 414 kts | 227° |
| 2026-05-01 13:51 | 32.86069 | -80.14914 | 37991 ft | 415 kts | 227° |
| 2026-05-01 13:52 | 32.81293 | -80.18773 | 37999 ft | 414 kts | 227° |
| 2026-05-01 13:52 | 32.76533 | -80.22613 | 37916 ft | 414 kts | 226° |
| 2026-05-01 13:53 | 32.71793 | -80.26432 | 38003 ft | 415 kts | 226° |
| 2026-05-01 13:53 | 32.64637 | -80.32190 | 37982 ft | 414 kts | 226° |
| 2026-05-01 13:54 | 32.59868 | -80.36022 | 37982 ft | 414 kts | 226° |
| 2026-05-01 13:54 | 32.54857 | -80.39550 | 37983 ft | 422 kts | 222° |
| 2026-05-01 13:55 | 32.49750 | -80.42974 | 37943 ft | 421 kts | 222° |
| 2026-05-01 13:55 | 32.44638 | -80.46430 | 37957 ft | 423 kts | 222° |
| 2026-05-01 13:56 | 32.39535 | -80.49878 | 37958 ft | 422 kts | 222° |
| 2026-05-01 13:56 | 32.34426 | -80.53326 | 37952 ft | 423 kts | 222° |
| 2026-05-01 13:57 | 32.30180 | -80.56188 | 37954 ft | 421 kts | 222° |
| 2026-05-01 13:57 | 32.24268 | -80.60167 | 37922 ft | 421 kts | 221° |
| 2026-05-01 13:58 | 32.19159 | -80.63602 | 37982 ft | 422 kts | 221° |
| 2026-05-01 13:58 | 32.14916 | -80.66451 | 37992 ft | 422 kts | 221° |
| 2026-05-01 13:59 | 32.09811 | -80.69874 | 37983 ft | 422 kts | 221° |
| 2026-05-01 13:59 | 32.04704 | -80.73295 | 37972 ft | 422 kts | 221° |
| 2026-05-01 14:00 | 31.99594 | -80.76712 | 37915 ft | 422 kts | 221° |
| 2026-05-01 14:00 | 31.94474 | -80.80133 | 37949 ft | 423 kts | 221° |
| 2026-05-01 14:01 | 31.89353 | -80.83549 | 37933 ft | 423 kts | 221° |
| 2026-05-01 14:01 | 31.84229 | -80.86963 | 37938 ft | 423 kts | 221° |
| 2026-05-01 14:02 | 31.79132 | -80.90355 | 37938 ft | 423 kts | 221° |
| 2026-05-01 14:02 | 31.74012 | -80.93758 | 37907 ft | 423 kts | 220° |
| 2026-05-01 14:03 | 31.68870 | -80.97170 | 37942 ft | 425 kts | 220° |
| 2026-05-01 14:03 | 31.63720 | -81.00585 | 37947 ft | 425 kts | 220° |
| 2026-05-01 14:04 | 31.58546 | -81.03970 | 37943 ft | 427 kts | 219° |
| 2026-05-01 14:04 | 31.53275 | -81.07199 | 37940 ft | 427 kts | 219° |
| 2026-05-01 14:05 | 31.48011 | -81.10440 | 37906 ft | 428 kts | 219° |
| 2026-05-01 14:05 | 31.42732 | -81.13689 | 37958 ft | 429 kts | 219° |
| 2026-05-01 14:06 | 31.37431 | -81.16917 | 37962 ft | 430 kts | 218° |
| 2026-05-01 14:06 | 31.32090 | -81.20091 | 37940 ft | 430 kts | 218° |
| 2026-05-01 14:07 | 31.26761 | -81.23261 | 37953 ft | 430 kts | 218° |
| 2026-05-01 14:08 | 31.18580 | -81.27707 | 37939 ft | 450 kts | 203° |
| 2026-05-01 14:08 | 31.15447 | -81.28131 | 37955 ft | 468 kts | 191° |
| 2026-05-01 14:08 | 31.12169 | -81.28178 | 37943 ft | 471 kts | 191° |
| 2026-05-01 14:09 | 31.05612 | -81.28224 | 37957 ft | 472 kts | 190° |
| 2026-05-01 14:09 | 30.99033 | -81.28214 | 37951 ft | 472 kts | 190° |
| 2026-05-01 14:10 | 30.92459 | -81.28197 | 37949 ft | 473 kts | 190° |
| 2026-05-01 14:10 | 30.85881 | -81.28181 | 37965 ft | 472 kts | 190° |
| 2026-05-01 14:11 | 30.79308 | -81.28164 | 37956 ft | 472 kts | 190° |
| 2026-05-01 14:11 | 30.72737 | -81.28147 | 36639 ft | 476 kts | 189° |
| 2026-05-01 14:11 | 30.69437 | -81.28138 | 36089 ft | 472 kts | 189° |
| 2026-05-01 14:12 | 30.66149 | -81.28130 | 35303 ft | 473 kts | 188° |
| 2026-05-01 14:12 | 30.62853 | -81.28122 | 34556 ft | 473 kts | 188° |
| 2026-05-01 14:12 | 30.59566 | -81.28013 | 33973 ft | 474 kts | 183° |
| 2026-05-01 14:12 | 30.56282 | -81.27726 | 33251 ft | 473 kts | 184° |
| 2026-05-01 14:13 | 30.53013 | -81.27464 | 32743 ft | 468 kts | 184° |
| 2026-05-01 14:13 | 30.50855 | -81.27301 | 32496 ft | 471 kts | 184° |
| 2026-05-01 14:13 | 30.46505 | -81.26977 | 32021 ft | 474 kts | 184° |
| 2026-05-01 14:13 | 30.43173 | -81.26731 | 31560 ft | 474 kts | 184° |
| 2026-05-01 14:14 | 30.39917 | -81.26490 | 31057 ft | 475 kts | 184° |
| 2026-05-01 14:14 | 30.36617 | -81.26247 | 30582 ft | 476 kts | 184° |
| 2026-05-01 14:14 | 30.33312 | -81.26003 | 30123 ft | 477 kts | 184° |
| 2026-05-01 14:14 | 30.29995 | -81.25759 | 29616 ft | 477 kts | 184° |
| 2026-05-01 14:15 | 30.26672 | -81.25515 | 29107 ft | 479 kts | 184° |
| 2026-05-01 14:15 | 30.23338 | -81.25270 | 28647 ft | 481 kts | 183° |
| 2026-05-01 14:15 | 30.19998 | -81.25024 | 28191 ft | 480 kts | 183° |
| 2026-05-01 14:15 | 30.16677 | -81.24780 | 27735 ft | 477 kts | 183° |
| 2026-05-01 14:16 | 30.13371 | -81.24537 | 27272 ft | 474 kts | 184° |
| 2026-05-01 14:16 | 30.10082 | -81.24296 | 26791 ft | 471 kts | 183° |
| 2026-05-01 14:16 | 30.06823 | -81.24057 | 26356 ft | 468 kts | 183° |
| 2026-05-01 14:16 | 30.03587 | -81.23820 | 25912 ft | 465 kts | 183° |
| 2026-05-01 14:17 | 30.00371 | -81.23585 | 25463 ft | 462 kts | 183° |
| 2026-05-01 14:17 | 29.97167 | -81.23351 | 25017 ft | 459 kts | 183° |
| 2026-05-01 14:17 | 29.93987 | -81.23118 | 24571 ft | 456 kts | 183° |
| 2026-05-01 14:17 | 29.90831 | -81.22888 | 24134 ft | 453 kts | 183° |
| 2026-05-01 14:18 | 29.87734 | -81.22662 | 23688 ft | 450 kts | 183° |
| 2026-05-01 14:18 | 29.84614 | -81.22434 | 23194 ft | 447 kts | 183° |
| 2026-05-01 14:18 | 29.81481 | -81.22205 | 22705 ft | 445 kts | 182° |
| 2026-05-01 14:18 | 29.79439 | -81.22057 | 22425 ft | 443 kts | 182° |
| 2026-05-01 14:19 | 29.75376 | -81.21761 | 21857 ft | 440 kts | 182° |
| 2026-05-01 14:19 | 29.72329 | -81.21539 | 21429 ft | 437 kts | 182° |
| 2026-05-01 14:19 | 29.69294 | -81.21286 | 20938 ft | 435 kts | 182° |
| 2026-05-01 14:19 | 29.66285 | -81.21025 | 20535 ft | 433 kts | 182° |
| 2026-05-01 14:20 | 29.63291 | -81.20768 | 20140 ft | 430 kts | 182° |
| 2026-05-01 14:20 | 29.57355 | -81.20261 | 19312 ft | 426 kts | 182° |
| 2026-05-01 14:20 | 29.54404 | -81.20010 | 18897 ft | 423 kts | 181° |
| 2026-05-01 14:21 | 29.51473 | -81.19760 | 18476 ft | 421 kts | 181° |
| 2026-05-01 14:21 | 29.48560 | -81.19512 | 18047 ft | 419 kts | 181° |
| 2026-05-01 14:21 | 29.45654 | -81.19265 | 17604 ft | 415 kts | 181° |
| 2026-05-01 14:22 | 29.39985 | -81.18783 | 16790 ft | 403 kts | 182° |
| 2026-05-01 14:22 | 29.37214 | -81.18547 | 16396 ft | 397 kts | 182° |
| 2026-05-01 14:22 | 29.34478 | -81.18315 | 16041 ft | 392 kts | 182° |
| 2026-05-01 14:22 | 29.31773 | -81.18085 | 15672 ft | 387 kts | 182° |
| 2026-05-01 14:23 | 29.29104 | -81.17855 | 15268 ft | 383 kts | 181° |
| 2026-05-01 14:23 | 29.26458 | -81.17622 | 14926 ft | 378 kts | 181° |
| 2026-05-01 14:23 | 29.23878 | -81.17395 | 14541 ft | 374 kts | 182° |
| 2026-05-01 14:23 | 29.21295 | -81.17169 | 14183 ft | 371 kts | 182° |
| 2026-05-01 14:24 | 29.18733 | -81.16849 | 13799 ft | 373 kts | 172° |
| 2026-05-01 14:24 | 29.16228 | -81.15853 | 13357 ft | 376 kts | 164° |
| 2026-05-01 14:24 | 29.13824 | -81.14824 | 12986 ft | 372 kts | 165° |
| 2026-05-01 14:24 | 29.11414 | -81.13797 | 12629 ft | 367 kts | 165° |
| 2026-05-01 14:25 | 29.09058 | -81.12792 | 12259 ft | 354 kts | 165° |
| 2026-05-01 14:25 | 29.06799 | -81.11829 | 11935 ft | 339 kts | 165° |
| 2026-05-01 14:25 | 29.04634 | -81.10916 | 11657 ft | 322 kts | 167° |
| 2026-05-01 14:25 | 29.02546 | -81.10119 | 11701 ft | 314 kts | 167° |
| 2026-05-01 14:26 | 29.00475 | -81.09331 | 11679 ft | 313 kts | 167° |
| 2026-05-01 14:26 | 28.96318 | -81.07980 | 11669 ft | 305 kts | 181° |
| 2026-05-01 14:26 | 28.94204 | -81.07756 | 11663 ft | 305 kts | 180° |
| 2026-05-01 14:27 | 28.92090 | -81.07519 | 11671 ft | 306 kts | 180° |
| 2026-05-01 14:27 | 28.89970 | -81.07284 | 11665 ft | 305 kts | 183° |
| 2026-05-01 14:27 | 28.87944 | -81.07615 | 11643 ft | 289 kts | 208° |
| 2026-05-01 14:28 | 28.84618 | -81.09995 | 11658 ft | 285 kts | 219° |
| 2026-05-01 14:28 | 28.82976 | -81.11262 | 11665 ft | 285 kts | 219° |
| 2026-05-01 14:28 | 28.81335 | -81.12542 | 11329 ft | 286 kts | 219° |
| 2026-05-01 14:28 | 28.79705 | -81.13822 | 10827 ft | 282 kts | 219° |
| 2026-05-01 14:29 | 28.78101 | -81.15088 | 10347 ft | 278 kts | 219° |
| 2026-05-01 14:29 | 28.76597 | -81.16425 | 9862 ft | 270 kts | 231° |
| 2026-05-01 14:30 | 28.76192 | -81.22294 | 8326 ft | 258 kts | 280° |
| 2026-05-01 14:30 | 28.76150 | -81.24304 | 7813 ft | 254 kts | 257° |
| 2026-05-01 14:30 | 28.75799 | -81.26246 | 7323 ft | 253 kts | 254° |
| 2026-05-01 14:31 | 28.73262 | -81.28665 | 6301 ft | 258 kts | 185° |
| 2026-05-01 14:31 | 28.71473 | -81.28601 | 5799 ft | 257 kts | 180° |
| 2026-05-01 14:31 | 28.69677 | -81.28553 | 5277 ft | 258 kts | 180° |
| 2026-05-01 14:31 | 28.67876 | -81.28518 | 4754 ft | 259 kts | 180° |
| 2026-05-01 14:32 | 28.66068 | -81.28490 | 4233 ft | 259 kts | 180° |
| 2026-05-01 14:32 | 28.64302 | -81.28467 | 4039 ft | 245 kts | 181° |
| 2026-05-01 14:32 | 28.62644 | -81.28446 | 3809 ft | 235 kts | 181° |
| 2026-05-01 14:32 | 28.61032 | -81.28427 | 3516 ft | 226 kts | 180° |
| 2026-05-01 14:33 | 28.59494 | -81.28411 | 3189 ft | 215 kts | 180° |
| 2026-05-01 14:33 | 28.58093 | -81.28396 | 2867 ft | 193 kts | 181° |
| 2026-05-01 14:33 | 28.56818 | -81.28382 | 2592 ft | 175 kts | 182° |
| 2026-05-01 14:33 | 28.55672 | -81.28371 | 2379 ft | 154 kts | 181° |
| 2026-05-01 14:34 | 28.54635 | -81.28360 | 2128 ft | 146 kts | 182° |
| 2026-05-01 14:34 | 28.53626 | -81.28346 | 1923 ft | 145 kts | 181° |
| 2026-05-01 14:34 | 28.52611 | -81.28339 | 1715 ft | 146 kts | 182° |
| 2026-05-01 14:34 | 28.51596 | -81.28333 | 1537 ft | 145 kts | 181° |
| 2026-05-01 14:35 | 28.50590 | -81.28322 | 1331 ft | 144 kts | 181° |
| 2026-05-01 14:35 | 28.49584 | -81.28313 | 1123 ft | 144 kts | 180° |
| 2026-05-01 14:35 | 28.48583 | -81.28300 | 948 ft | 144 kts | 180° |
| 2026-05-01 14:35 | 28.47582 | -81.28292 | 744 ft | 143 kts | 181° |
| 2026-05-01 14:36 | 28.46581 | -81.28270 | 535 ft | 142 kts | 182° |
| 2026-05-01 14:36 | 28.45606 | -81.28253 | 363 ft | 141 kts | 181° |
| 2026-05-01 14:36 | 28.44634 | -81.28254 | 210 ft | 138 kts | 181° |
| 2026-05-01 14:36 | 28.43717 | -81.28254 | 105 ft | 121 kts | 180° |
| 2026-05-01 14:37 | 28.43238 | -81.28253 | 99 ft | 35 kts | 179° |
| 2026-05-01 14:37 | 28.42958 | -81.28245 | 102 ft | 45 kts | 178° |
| 2026-05-01 14:37 | 28.42686 | -81.28241 | 102 ft | 22 kts | 186° |
| 2026-05-01 14:37 | 28.42575 | -81.28283 | 105 ft | 9 kts | 211° |
| 2026-05-01 14:38 | 28.42548 | -81.28359 | 105 ft | 20 kts | 271° |
| 2026-05-01 14:38 | 28.42491 | -81.28551 | 109 ft | 28 kts | 241° |
| 2026-05-01 14:38 | 28.42400 | -81.28758 | 109 ft | 30 kts | 249° |
| 2026-05-01 14:38 | 28.42328 | -81.28989 | 107 ft | 32 kts | 251° |
| 2026-05-01 14:39 | 28.42287 | -81.29239 | 110 ft | 33 kts | 269° |
| 2026-05-01 14:39 | 28.42285 | -81.29506 | 105 ft | 27 kts | 269° |
| 2026-05-01 14:39 | 28.42291 | -81.29653 | 98 ft | 6 kts | 287° |
| 2026-05-01 14:39 | 28.42318 | -81.29714 | 100 ft | 13 kts | 308° |
| 2026-05-01 14:40 | 28.42492 | -81.29717 | 101 ft | 30 kts | 8° |
| 2026-05-01 14:40 | 28.42721 | -81.29704 | 99 ft | 34 kts | 360° |
| 2026-05-01 14:40 | 28.42878 | -81.29707 | 103 ft | 10 kts | 360° |
| 2026-05-01 14:40 | 28.42954 | -81.29707 | 103 ft | 12 kts | 0° |
| 2026-05-01 14:41 | 28.43054 | -81.29706 | 101 ft | 16 kts | 0° |
| 2026-05-01 14:41 | 28.43174 | -81.29705 | 102 ft | 18 kts | 0° |
| 2026-05-01 14:41 | 28.43303 | -81.29706 | 104 ft | 19 kts | 356° |
| 2026-05-01 14:41 | 28.43392 | -81.29715 | 103 ft | 0 kts | 351° |
| 2026-05-01 14:42 | 28.43444 | -81.29778 | 102 ft | 22 kts | 296° |
| 2026-05-01 14:42 | 28.43447 | -81.29892 | 103 ft | 10 kts | 257° |
| 2026-05-01 14:42 | 28.43431 | -81.29946 | 103 ft | 0 kts | 252° |
| 2026-05-01 14:42 | 28.43431 | -81.29994 | 103 ft | 7 kts | 275° |
| 2026-05-01 14:43 | 28.43432 | -81.30005 | 103 ft | 0 kts | 278° |